sensor_id;sensor_type;location;lat;lon;timestamp;P1;durP1;ratioP1;P2;durP2;ratioP2
24873;SDS011;12945;42.648;23.370;2022-11-20T00:01:20;15.10;;;10.35;;
24873;SDS011;12945;42.648;23.370;2022-11-20T00:03:43;17.38;;;9.23;;
24873;SDS011;12945;42.648;23.370;2022-11-20T00:06:13;14.32;;;9.82;;
24873;SDS011;12945;42.648;23.370;2022-11-20T00:08:38;14.40;;;9.27;;
24873;SDS011;12945;42.648;23.370;2022-11-20T00:11:08;20.60;;;10.00;;
24873;SDS011;12945;42.648;23.370;2022-11-20T00:13:33;14.15;;;8.88;;
24873;SDS011;12945;42.648;23.370;2022-11-20T00:16:00;13.85;;;8.45;;
24873;SDS011;12945;42.648;23.370;2022-11-20T00:18:25;17.27;;;7.82;;
24873;SDS011;12945;42.648;23.370;2022-11-20T00:20:51;11.75;;;5.95;;
24873;SDS011;12945;42.648;23.370;2022-11-20T00:23:16;11.23;;;6.95;;
24873;SDS011;12945;42.648;23.370;2022-11-20T00:25:41;13.27;;;6.68;;
24873;SDS011;12945;42.648;23.370;2022-11-20T00:28:07;11.00;;;6.28;;
24873;SDS011;12945;42.648;23.370;2022-11-20T00:30:32;12.23;;;6.47;;
24873;SDS011;12945;42.648;23.370;2022-11-20T00:32:57;11.48;;;6.30;;
24873;SDS011;12945;42.648;23.370;2022-11-20T00:35:23;12.25;;;6.40;;
24873;SDS011;12945;42.648;23.370;2022-11-20T00:37:48;10.35;;;5.25;;
24873;SDS011;12945;42.648;23.370;2022-11-20T00:40:13;10.65;;;5.50;;
24873;SDS011;12945;42.648;23.370;2022-11-20T00:42:38;10.82;;;5.55;;
24873;SDS011;12945;42.648;23.370;2022-11-20T00:45:04;8.43;;;4.10;;
24873;SDS011;12945;42.648;23.370;2022-11-20T00:47:29;8.90;;;5.00;;
24873;SDS011;12945;42.648;23.370;2022-11-20T00:49:54;8.73;;;4.55;;
24873;SDS011;12945;42.648;23.370;2022-11-20T00:52:20;11.98;;;4.72;;
24873;SDS011;12945;42.648;23.370;2022-11-20T00:54:45;7.93;;;4.18;;
24873;SDS011;12945;42.648;23.370;2022-11-20T00:57:10;6.15;;;3.75;;
24873;SDS011;12945;42.648;23.370;2022-11-20T00:59:35;7.80;;;4.07;;
24873;SDS011;12945;42.648;23.370;2022-11-20T01:02:01;5.95;;;3.33;;
24873;SDS011;12945;42.648;23.370;2022-11-20T01:04:26;7.88;;;3.85;;
24873;SDS011;12945;42.648;23.370;2022-11-20T01:06:51;5.88;;;3.17;;
24873;SDS011;12945;42.648;23.370;2022-11-20T01:09:16;6.93;;;3.05;;
24873;SDS011;12945;42.648;23.370;2022-11-20T01:11:43;6.40;;;2.75;;
24873;SDS011;12945;42.648;23.370;2022-11-20T01:14:10;7.32;;;2.50;;
24873;SDS011;12945;42.648;23.370;2022-11-20T01:16:37;6.68;;;2.50;;
24873;SDS011;12945;42.648;23.370;2022-11-20T01:19:04;10.40;;;2.75;;
24873;SDS011;12945;42.648;23.370;2022-11-20T01:21:31;4.53;;;2.45;;
24873;SDS011;12945;42.648;23.370;2022-11-20T01:23:57;6.57;;;2.70;;
24873;SDS011;12945;42.648;23.370;2022-11-20T01:26:23;6.82;;;3.10;;
24873;SDS011;12945;42.648;23.370;2022-11-20T01:28:49;8.88;;;3.50;;
24873;SDS011;12945;42.648;23.370;2022-11-20T01:31:24;7.03;;;2.95;;
24873;SDS011;12945;42.648;23.370;2022-11-20T01:33:51;9.73;;;2.95;;
24873;SDS011;12945;42.648;23.370;2022-11-20T01:36:17;6.30;;;3.40;;
24873;SDS011;12945;42.648;23.370;2022-11-20T01:38:42;8.70;;;3.72;;
24873;SDS011;12945;42.648;23.370;2022-11-20T01:41:08;8.95;;;3.50;;
24873;SDS011;12945;42.648;23.370;2022-11-20T01:43:34;9.85;;;3.65;;
24873;SDS011;12945;42.648;23.370;2022-11-20T01:48:25;8.35;;;3.85;;
24873;SDS011;12945;42.648;23.370;2022-11-20T01:50:52;5.78;;;3.35;;
24873;SDS011;12945;42.648;23.370;2022-11-20T01:53:18;6.25;;;3.55;;
24873;SDS011;12945;42.648;23.370;2022-11-20T01:55:47;11.05;;;3.50;;
24873;SDS011;12945;42.648;23.370;2022-11-20T01:58:14;10.70;;;3.83;;
24873;SDS011;12945;42.648;23.370;2022-11-20T02:00:40;4.65;;;2.67;;
24873;SDS011;12945;42.648;23.370;2022-11-20T02:03:07;7.38;;;3.33;;
24873;SDS011;12945;42.648;23.370;2022-11-20T02:05:38;7.03;;;3.75;;
24873;SDS011;12945;42.648;23.370;2022-11-20T02:08:05;6.30;;;3.28;;
24873;SDS011;12945;42.648;23.370;2022-11-20T02:10:31;10.73;;;3.90;;
24873;SDS011;12945;42.648;23.370;2022-11-20T02:12:57;7.82;;;3.40;;
24873;SDS011;12945;42.648;23.370;2022-11-20T02:15:40;7.97;;;3.35;;
24873;SDS011;12945;42.648;23.370;2022-11-20T02:18:06;7.95;;;3.50;;
24873;SDS011;12945;42.648;23.370;2022-11-20T02:20:32;5.78;;;3.13;;
24873;SDS011;12945;42.648;23.370;2022-11-20T02:22:59;10.02;;;3.42;;
24873;SDS011;12945;42.648;23.370;2022-11-20T02:25:26;4.80;;;2.70;;
24873;SDS011;12945;42.648;23.370;2022-11-20T02:27:52;6.70;;;3.00;;
24873;SDS011;12945;42.648;23.370;2022-11-20T02:30:17;8.60;;;2.72;;
24873;SDS011;12945;42.648;23.370;2022-11-20T02:32:43;6.65;;;2.83;;
24873;SDS011;12945;42.648;23.370;2022-11-20T02:37:42;6.18;;;2.42;;
24873;SDS011;12945;42.648;23.370;2022-11-20T02:40:08;7.07;;;2.20;;
24873;SDS011;12945;42.648;23.370;2022-11-20T02:42:34;4.85;;;2.20;;
24873;SDS011;12945;42.648;23.370;2022-11-20T02:44:59;5.78;;;2.22;;
24873;SDS011;12945;42.648;23.370;2022-11-20T02:47:25;5.03;;;1.30;;
24873;SDS011;12945;42.648;23.370;2022-11-20T02:49:50;2.58;;;1.00;;
24873;SDS011;12945;42.648;23.370;2022-11-20T02:52:15;3.70;;;0.82;;
24873;SDS011;12945;42.648;23.370;2022-11-20T02:54:41;3.67;;;1.13;;
24873;SDS011;12945;42.648;23.370;2022-11-20T02:57:06;3.85;;;0.95;;
24873;SDS011;12945;42.648;23.370;2022-11-20T02:59:32;3.75;;;1.10;;
24873;SDS011;12945;42.648;23.370;2022-11-20T03:01:57;2.75;;;1.00;;
24873;SDS011;12945;42.648;23.370;2022-11-20T03:04:22;3.60;;;1.10;;
24873;SDS011;12945;42.648;23.370;2022-11-20T03:06:48;9.65;;;1.10;;
24873;SDS011;12945;42.648;23.370;2022-11-20T03:09:13;8.32;;;1.27;;
24873;SDS011;12945;42.648;23.370;2022-11-20T03:11:38;3.25;;;1.00;;
24873;SDS011;12945;42.648;23.370;2022-11-20T03:14:04;4.68;;;1.42;;
24873;SDS011;12945;42.648;23.370;2022-11-20T03:16:30;2.78;;;0.88;;
24873;SDS011;12945;42.648;23.370;2022-11-20T03:18:55;2.45;;;0.82;;
24873;SDS011;12945;42.648;23.370;2022-11-20T03:21:21;2.35;;;0.93;;
24873;SDS011;12945;42.648;23.370;2022-11-20T03:23:46;1.92;;;1.00;;
24873;SDS011;12945;42.648;23.370;2022-11-20T03:26:19;3.47;;;1.13;;
24873;SDS011;12945;42.648;23.370;2022-11-20T03:28:48;2.25;;;1.10;;
24873;SDS011;12945;42.648;23.370;2022-11-20T03:31:15;4.65;;;0.95;;
24873;SDS011;12945;42.648;23.370;2022-11-20T03:33:41;6.00;;;0.90;;
24873;SDS011;12945;42.648;23.370;2022-11-20T03:36:07;7.18;;;1.60;;
24873;SDS011;12945;42.648;23.370;2022-11-20T03:38:33;3.47;;;1.05;;
24873;SDS011;12945;42.648;23.370;2022-11-20T03:41:02;4.80;;;1.13;;
24873;SDS011;12945;42.648;23.370;2022-11-20T03:43:28;4.53;;;1.65;;
24873;SDS011;12945;42.648;23.370;2022-11-20T03:45:53;2.35;;;1.00;;
24873;SDS011;12945;42.648;23.370;2022-11-20T03:48:19;3.13;;;0.95;;
24873;SDS011;12945;42.648;23.370;2022-11-20T03:50:44;2.50;;;1.10;;
24873;SDS011;12945;42.648;23.370;2022-11-20T03:53:09;3.67;;;1.27;;
24873;SDS011;12945;42.648;23.370;2022-11-20T03:55:34;7.93;;;1.02;;
24873;SDS011;12945;42.648;23.370;2022-11-20T03:58:00;2.95;;;1.10;;
24873;SDS011;12945;42.648;23.370;2022-11-20T04:00:25;4.03;;;1.25;;
24873;SDS011;12945;42.648;23.370;2022-11-20T04:02:50;2.83;;;1.00;;
24873;SDS011;12945;42.648;23.370;2022-11-20T04:05:16;4.82;;;1.40;;
24873;SDS011;12945;42.648;23.370;2022-11-20T04:07:41;7.10;;;1.27;;
24873;SDS011;12945;42.648;23.370;2022-11-20T04:10:06;3.30;;;1.10;;
24873;SDS011;12945;42.648;23.370;2022-11-20T04:12:32;3.40;;;1.13;;
24873;SDS011;12945;42.648;23.370;2022-11-20T04:14:57;2.47;;;1.08;;
24873;SDS011;12945;42.648;23.370;2022-11-20T04:17:23;6.60;;;1.13;;
24873;SDS011;12945;42.648;23.370;2022-11-20T04:19:48;3.40;;;1.13;;
24873;SDS011;12945;42.648;23.370;2022-11-20T04:22:13;5.25;;;1.15;;
24873;SDS011;12945;42.648;23.370;2022-11-20T04:24:38;5.55;;;1.08;;
24873;SDS011;12945;42.648;23.370;2022-11-20T04:27:04;4.22;;;1.00;;
24873;SDS011;12945;42.648;23.370;2022-11-20T04:29:29;7.07;;;1.23;;
24873;SDS011;12945;42.648;23.370;2022-11-20T04:31:54;1.05;;;0.65;;
24873;SDS011;12945;42.648;23.370;2022-11-20T04:34:20;3.38;;;1.08;;
24873;SDS011;12945;42.648;23.370;2022-11-20T04:36:45;4.20;;;1.08;;
24873;SDS011;12945;42.648;23.370;2022-11-20T04:39:11;5.70;;;1.10;;
24873;SDS011;12945;42.648;23.370;2022-11-20T04:41:36;4.85;;;1.20;;
24873;SDS011;12945;42.648;23.370;2022-11-20T04:44:02;5.63;;;1.38;;
24873;SDS011;12945;42.648;23.370;2022-11-20T04:46:29;4.97;;;1.40;;
24873;SDS011;12945;42.648;23.370;2022-11-20T04:48:54;3.65;;;1.13;;
24873;SDS011;12945;42.648;23.370;2022-11-20T04:51:19;3.72;;;1.00;;
24873;SDS011;12945;42.648;23.370;2022-11-20T04:53:45;4.63;;;1.00;;
24873;SDS011;12945;42.648;23.370;2022-11-20T04:56:11;5.20;;;1.30;;
24873;SDS011;12945;42.648;23.370;2022-11-20T04:58:37;5.05;;;0.98;;
24873;SDS011;12945;42.648;23.370;2022-11-20T05:03:27;3.00;;;1.00;;
24873;SDS011;12945;42.648;23.370;2022-11-20T05:05:53;4.75;;;1.15;;
24873;SDS011;12945;42.648;23.370;2022-11-20T05:08:18;1.55;;;0.80;;
24873;SDS011;12945;42.648;23.370;2022-11-20T05:10:43;7.50;;;1.00;;
24873;SDS011;12945;42.648;23.370;2022-11-20T05:13:08;5.28;;;1.40;;
24873;SDS011;12945;42.648;23.370;2022-11-20T05:15:34;2.13;;;0.90;;
24873;SDS011;12945;42.648;23.370;2022-11-20T05:17:59;1.85;;;0.90;;
24873;SDS011;12945;42.648;23.370;2022-11-20T05:20:24;2.50;;;1.10;;
24873;SDS011;12945;42.648;23.370;2022-11-20T05:22:49;13.25;;;1.17;;
24873;SDS011;12945;42.648;23.370;2022-11-20T05:25:15;5.10;;;1.40;;
24873;SDS011;12945;42.648;23.370;2022-11-20T05:27:40;6.22;;;1.00;;
24873;SDS011;12945;42.648;23.370;2022-11-20T05:30:05;3.95;;;1.20;;
24873;SDS011;12945;42.648;23.370;2022-11-20T05:32:31;6.43;;;1.40;;
24873;SDS011;12945;42.648;23.370;2022-11-20T05:34:56;3.35;;;1.23;;
24873;SDS011;12945;42.648;23.370;2022-11-20T05:37:21;5.93;;;1.45;;
24873;SDS011;12945;42.648;23.370;2022-11-20T05:39:47;7.50;;;1.80;;
24873;SDS011;12945;42.648;23.370;2022-11-20T05:42:12;4.30;;;1.50;;
24873;SDS011;12945;42.648;23.370;2022-11-20T05:44:58;4.43;;;1.30;;
24873;SDS011;12945;42.648;23.370;2022-11-20T05:47:24;5.40;;;1.52;;
24873;SDS011;12945;42.648;23.370;2022-11-20T05:49:49;8.50;;;1.52;;
24873;SDS011;12945;42.648;23.370;2022-11-20T05:52:14;3.42;;;1.58;;
24873;SDS011;12945;42.648;23.370;2022-11-20T05:54:40;7.28;;;1.38;;
24873;SDS011;12945;42.648;23.370;2022-11-20T05:57:05;5.30;;;1.50;;
24873;SDS011;12945;42.648;23.370;2022-11-20T05:59:30;6.32;;;1.70;;
24873;SDS011;12945;42.648;23.370;2022-11-20T06:01:55;4.75;;;1.40;;
24873;SDS011;12945;42.648;23.370;2022-11-20T06:04:21;9.40;;;1.52;;
24873;SDS011;12945;42.648;23.370;2022-11-20T06:06:46;3.30;;;1.40;;
24873;SDS011;12945;42.648;23.370;2022-11-20T06:09:11;6.53;;;1.40;;
24873;SDS011;12945;42.648;23.370;2022-11-20T06:11:37;5.90;;;1.38;;
24873;SDS011;12945;42.648;23.370;2022-11-20T06:14:02;8.65;;;1.45;;
24873;SDS011;12945;42.648;23.370;2022-11-20T06:16:27;7.45;;;1.40;;
24873;SDS011;12945;42.648;23.370;2022-11-20T06:18:52;5.35;;;1.35;;
24873;SDS011;12945;42.648;23.370;2022-11-20T06:21:19;8.13;;;1.95;;
24873;SDS011;12945;42.648;23.370;2022-11-20T06:23:44;7.75;;;1.63;;
24873;SDS011;12945;42.648;23.370;2022-11-20T06:26:14;6.32;;;1.58;;
24873;SDS011;12945;42.648;23.370;2022-11-20T06:28:41;5.95;;;1.70;;
24873;SDS011;12945;42.648;23.370;2022-11-20T06:31:06;5.10;;;1.90;;
24873;SDS011;12945;42.648;23.370;2022-11-20T06:33:32;10.50;;;1.92;;
24873;SDS011;12945;42.648;23.370;2022-11-20T06:36:00;8.43;;;1.67;;
24873;SDS011;12945;42.648;23.370;2022-11-20T06:38:26;8.23;;;2.28;;
24873;SDS011;12945;42.648;23.370;2022-11-20T06:40:51;9.50;;;1.63;;
24873;SDS011;12945;42.648;23.370;2022-11-20T06:43:17;6.50;;;1.75;;
24873;SDS011;12945;42.648;23.370;2022-11-20T06:45:42;6.78;;;1.75;;
24873;SDS011;12945;42.648;23.370;2022-11-20T06:48:08;8.00;;;2.08;;
24873;SDS011;12945;42.648;23.370;2022-11-20T06:50:33;4.68;;;1.75;;
24873;SDS011;12945;42.648;23.370;2022-11-20T06:53:02;8.68;;;1.80;;
24873;SDS011;12945;42.648;23.370;2022-11-20T06:55:28;8.48;;;1.95;;
24873;SDS011;12945;42.648;23.370;2022-11-20T06:57:53;6.55;;;1.77;;
24873;SDS011;12945;42.648;23.370;2022-11-20T07:00:18;10.57;;;4.43;;
24873;SDS011;12945;42.648;23.370;2022-11-20T07:02:43;6.65;;;2.15;;
24873;SDS011;12945;42.648;23.370;2022-11-20T07:05:09;6.88;;;2.13;;
24873;SDS011;12945;42.648;23.370;2022-11-20T07:07:34;5.20;;;1.27;;
24873;SDS011;12945;42.648;23.370;2022-11-20T07:09:59;5.78;;;1.50;;
24873;SDS011;12945;42.648;23.370;2022-11-20T07:12:24;7.18;;;1.60;;
24873;SDS011;12945;42.648;23.370;2022-11-20T07:14:50;10.52;;;2.25;;
24873;SDS011;12945;42.648;23.370;2022-11-20T07:17:15;12.15;;;1.92;;
24873;SDS011;12945;42.648;23.370;2022-11-20T07:19:40;4.53;;;2.10;;
24873;SDS011;12945;42.648;23.370;2022-11-20T07:22:07;7.28;;;1.80;;
24873;SDS011;12945;42.648;23.370;2022-11-20T07:24:33;4.78;;;1.60;;
24873;SDS011;12945;42.648;23.370;2022-11-20T07:26:58;8.20;;;1.75;;
24873;SDS011;12945;42.648;23.370;2022-11-20T07:29:23;4.47;;;1.60;;
24873;SDS011;12945;42.648;23.370;2022-11-20T07:31:49;8.02;;;2.58;;
24873;SDS011;12945;42.648;23.370;2022-11-20T07:34:14;6.15;;;1.92;;
24873;SDS011;12945;42.648;23.370;2022-11-20T07:36:40;6.20;;;1.92;;
24873;SDS011;12945;42.648;23.370;2022-11-20T07:39:05;4.60;;;1.88;;
24873;SDS011;12945;42.648;23.370;2022-11-20T07:41:30;8.82;;;2.00;;
24873;SDS011;12945;42.648;23.370;2022-11-20T07:43:56;8.75;;;2.60;;
24873;SDS011;12945;42.648;23.370;2022-11-20T07:46:21;9.45;;;2.17;;
24873;SDS011;12945;42.648;23.370;2022-11-20T07:48:46;6.20;;;2.15;;
24873;SDS011;12945;42.648;23.370;2022-11-20T07:51:12;7.72;;;2.30;;
24873;SDS011;12945;42.648;23.370;2022-11-20T07:53:38;6.80;;;1.92;;
24873;SDS011;12945;42.648;23.370;2022-11-20T07:56:04;5.80;;;2.50;;
24873;SDS011;12945;42.648;23.370;2022-11-20T07:58:29;7.13;;;2.10;;
24873;SDS011;12945;42.648;23.370;2022-11-20T08:00:55;10.98;;;2.70;;
24873;SDS011;12945;42.648;23.370;2022-11-20T08:03:20;5.45;;;2.30;;
24873;SDS011;12945;42.648;23.370;2022-11-20T08:05:46;9.90;;;2.40;;
24873;SDS011;12945;42.648;23.370;2022-11-20T08:08:11;7.38;;;2.70;;
24873;SDS011;12945;42.648;23.370;2022-11-20T08:10:37;7.78;;;1.95;;
24873;SDS011;12945;42.648;23.370;2022-11-20T08:13:03;6.72;;;2.30;;
24873;SDS011;12945;42.648;23.370;2022-11-20T08:15:48;7.68;;;1.77;;
24873;SDS011;12945;42.648;23.370;2022-11-20T08:18:13;6.72;;;2.40;;
24873;SDS011;12945;42.648;23.370;2022-11-20T08:20:39;8.77;;;2.50;;
24873;SDS011;12945;42.648;23.370;2022-11-20T08:23:05;10.02;;;2.15;;
24873;SDS011;12945;42.648;23.370;2022-11-20T08:25:30;7.72;;;2.40;;
24873;SDS011;12945;42.648;23.370;2022-11-20T08:27:57;8.05;;;2.38;;
24873;SDS011;12945;42.648;23.370;2022-11-20T08:30:22;7.38;;;2.10;;
24873;SDS011;12945;42.648;23.370;2022-11-20T08:32:47;11.80;;;2.40;;
24873;SDS011;12945;42.648;23.370;2022-11-20T08:35:12;9.63;;;2.72;;
24873;SDS011;12945;42.648;23.370;2022-11-20T08:37:38;7.70;;;2.03;;
24873;SDS011;12945;42.648;23.370;2022-11-20T08:40:06;10.30;;;3.15;;
24873;SDS011;12945;42.648;23.370;2022-11-20T08:42:32;8.75;;;3.45;;
24873;SDS011;12945;42.648;23.370;2022-11-20T08:44:57;10.20;;;2.45;;
24873;SDS011;12945;42.648;23.370;2022-11-20T08:47:22;10.38;;;2.53;;
24873;SDS011;12945;42.648;23.370;2022-11-20T08:49:48;11.40;;;1.80;;
24873;SDS011;12945;42.648;23.370;2022-11-20T08:52:13;14.75;;;4.45;;
24873;SDS011;12945;42.648;23.370;2022-11-20T08:54:38;8.30;;;2.15;;
24873;SDS011;12945;42.648;23.370;2022-11-20T08:57:03;14.63;;;4.10;;
24873;SDS011;12945;42.648;23.370;2022-11-20T08:59:29;8.38;;;3.33;;
24873;SDS011;12945;42.648;23.370;2022-11-20T09:01:55;8.05;;;2.20;;
24873;SDS011;12945;42.648;23.370;2022-11-20T09:04:21;8.13;;;1.85;;
24873;SDS011;12945;42.648;23.370;2022-11-20T09:06:46;8.00;;;1.90;;
24873;SDS011;12945;42.648;23.370;2022-11-20T09:09:15;7.18;;;1.92;;
24873;SDS011;12945;42.648;23.370;2022-11-20T09:11:41;7.03;;;2.20;;
24873;SDS011;12945;42.648;23.370;2022-11-20T09:14:06;8.05;;;2.67;;
24873;SDS011;12945;42.648;23.370;2022-11-20T09:16:32;9.85;;;3.58;;
24873;SDS011;12945;42.648;23.370;2022-11-20T09:18:57;8.88;;;3.38;;
24873;SDS011;12945;42.648;23.370;2022-11-20T09:21:22;9.02;;;3.10;;
24873;SDS011;12945;42.648;23.370;2022-11-20T09:23:48;6.40;;;3.13;;
24873;SDS011;12945;42.648;23.370;2022-11-20T09:26:14;11.27;;;3.50;;
24873;SDS011;12945;42.648;23.370;2022-11-20T09:28:39;7.50;;;3.60;;
24873;SDS011;12945;42.648;23.370;2022-11-20T09:31:08;9.23;;;3.50;;
24873;SDS011;12945;42.648;23.370;2022-11-20T09:33:34;7.03;;;2.88;;
24873;SDS011;12945;42.648;23.370;2022-11-20T09:35:59;5.30;;;1.95;;
24873;SDS011;12945;42.648;23.370;2022-11-20T09:38:25;6.70;;;2.45;;
24873;SDS011;12945;42.648;23.370;2022-11-20T09:40:57;7.60;;;2.53;;
24873;SDS011;12945;42.648;23.370;2022-11-20T09:46:12;4.85;;;1.90;;
24873;SDS011;12945;42.648;23.370;2022-11-20T09:48:51;4.00;;;1.80;;
24873;SDS011;12945;42.648;23.370;2022-11-20T09:51:41;7.53;;;2.10;;
24873;SDS011;12945;42.648;23.370;2022-11-20T09:56:37;2.60;;;1.45;;
24873;SDS011;12945;42.648;23.370;2022-11-20T09:59:05;6.32;;;2.00;;
24873;SDS011;12945;42.648;23.370;2022-11-20T10:01:32;7.07;;;2.88;;
24873;SDS011;12945;42.648;23.370;2022-11-20T10:04:08;8.40;;;2.28;;
24873;SDS011;12945;42.648;23.370;2022-11-20T10:06:42;9.40;;;2.13;;
24873;SDS011;12945;42.648;23.370;2022-11-20T10:17:03;4.57;;;2.00;;
24873;SDS011;12945;42.648;23.370;2022-11-20T10:19:37;6.07;;;2.05;;
24873;SDS011;12945;42.648;23.370;2022-11-20T10:29:34;4.82;;;2.28;;
24873;SDS011;12945;42.648;23.370;2022-11-20T10:32:01;6.18;;;2.35;;
24873;SDS011;12945;42.648;23.370;2022-11-20T10:34:32;8.32;;;3.70;;
24873;SDS011;12945;42.648;23.370;2022-11-20T10:37:04;11.00;;;3.30;;
24873;SDS011;12945;42.648;23.370;2022-11-20T10:42:12;9.82;;;3.58;;
24873;SDS011;12945;42.648;23.370;2022-11-20T10:44:41;10.10;;;3.83;;
24873;SDS011;12945;42.648;23.370;2022-11-20T10:47:39;9.77;;;3.25;;
24873;SDS011;12945;42.648;23.370;2022-11-20T10:50:05;6.32;;;2.78;;
24873;SDS011;12945;42.648;23.370;2022-11-20T11:00:12;10.45;;;3.70;;
24873;SDS011;12945;42.648;23.370;2022-11-20T11:02:46;10.38;;;2.90;;
24873;SDS011;12945;42.648;23.370;2022-11-20T11:07:40;11.85;;;3.70;;
24873;SDS011;12945;42.648;23.370;2022-11-20T11:10:14;14.65;;;4.20;;
24873;SDS011;12945;42.648;23.370;2022-11-20T11:12:42;8.63;;;3.60;;
24873;SDS011;12945;42.648;23.370;2022-11-20T11:15:11;10.02;;;4.03;;
24873;SDS011;12945;42.648;23.370;2022-11-20T11:17:37;15.52;;;4.85;;
24873;SDS011;12945;42.648;23.370;2022-11-20T11:22:43;22.83;;;5.85;;
24873;SDS011;12945;42.648;23.370;2022-11-20T11:25:17;9.50;;;3.47;;
24873;SDS011;12945;42.648;23.370;2022-11-20T11:27:47;7.65;;;3.33;;
24873;SDS011;12945;42.648;23.370;2022-11-20T11:30:14;8.25;;;2.70;;
24873;SDS011;12945;42.648;23.370;2022-11-20T11:32:39;5.75;;;2.50;;
24873;SDS011;12945;42.648;23.370;2022-11-20T11:35:05;2.78;;;1.73;;
24873;SDS011;12945;42.648;23.370;2022-11-20T11:37:35;5.00;;;2.00;;
24873;SDS011;12945;42.648;23.370;2022-11-20T11:40:01;3.25;;;1.50;;
24873;SDS011;12945;42.648;23.370;2022-11-20T11:42:27;2.08;;;0.82;;
24873;SDS011;12945;42.648;23.370;2022-11-20T11:44:53;2.47;;;0.95;;
24873;SDS011;12945;42.648;23.370;2022-11-20T11:47:43;2.00;;;0.80;;
24873;SDS011;12945;42.648;23.370;2022-11-20T11:52:39;6.10;;;1.10;;
24873;SDS011;12945;42.648;23.370;2022-11-20T11:55:07;3.90;;;1.10;;
24873;SDS011;12945;42.648;23.370;2022-11-20T12:00:20;8.55;;;1.20;;
24873;SDS011;12945;42.648;23.370;2022-11-20T12:07:53;3.72;;;1.50;;
24873;SDS011;12945;42.648;23.370;2022-11-20T12:10:23;9.85;;;1.70;;
24873;SDS011;12945;42.648;23.370;2022-11-20T12:15:26;2.67;;;0.90;;
24873;SDS011;12945;42.648;23.370;2022-11-20T12:17:53;4.78;;;1.00;;
24873;SDS011;12945;42.648;23.370;2022-11-20T12:20:18;14.32;;;3.75;;
24873;SDS011;12945;42.648;23.370;2022-11-20T12:22:49;7.80;;;2.92;;
24873;SDS011;12945;42.648;23.370;2022-11-20T12:25:22;5.35;;;1.10;;
24873;SDS011;12945;42.648;23.370;2022-11-20T12:30:32;2.05;;;0.90;;
24873;SDS011;12945;42.648;23.370;2022-11-20T12:38:04;8.32;;;3.15;;
24873;SDS011;12945;42.648;23.370;2022-11-20T12:43:19;3.95;;;1.38;;
24873;SDS011;12945;42.648;23.370;2022-11-20T12:46:07;7.03;;;1.40;;
24873;SDS011;12945;42.648;23.370;2022-11-20T13:06:32;6.72;;;2.35;;
24873;SDS011;12945;42.648;23.370;2022-11-20T13:08:58;7.13;;;1.77;;
24873;SDS011;12945;42.648;23.370;2022-11-20T13:18:48;12.85;;;2.92;;
24873;SDS011;12945;42.648;23.370;2022-11-20T13:21:18;11.63;;;2.92;;
24873;SDS011;12945;42.648;23.370;2022-11-20T13:23:44;6.63;;;3.08;;
24873;SDS011;12945;42.648;23.370;2022-11-20T13:26:16;10.05;;;3.30;;
24873;SDS011;12945;42.648;23.370;2022-11-20T13:28:42;7.32;;;3.53;;
24873;SDS011;12945;42.648;23.370;2022-11-20T13:36:33;8.40;;;3.20;;
24873;SDS011;12945;42.648;23.370;2022-11-20T13:39:01;5.63;;;2.45;;
24873;SDS011;12945;42.648;23.370;2022-11-20T13:41:28;6.18;;;2.22;;
24873;SDS011;12945;42.648;23.370;2022-11-20T13:43:56;8.80;;;2.38;;
24873;SDS011;12945;42.648;23.370;2022-11-20T13:46:22;5.95;;;2.45;;
24873;SDS011;12945;42.648;23.370;2022-11-20T13:48:49;8.20;;;2.50;;
24873;SDS011;12945;42.648;23.370;2022-11-20T14:01:30;7.10;;;3.08;;
24873;SDS011;12945;42.648;23.370;2022-11-20T14:03:59;14.35;;;3.33;;
24873;SDS011;12945;42.648;23.370;2022-11-20T14:06:29;9.05;;;3.30;;
24873;SDS011;12945;42.648;23.370;2022-11-20T14:08:56;11.65;;;3.53;;
24873;SDS011;12945;42.648;23.370;2022-11-20T14:11:25;8.60;;;3.05;;
24873;SDS011;12945;42.648;23.370;2022-11-20T14:14:36;7.75;;;3.50;;
24873;SDS011;12945;42.648;23.370;2022-11-20T14:16:36;10.57;;;3.10;;
24873;SDS011;12945;42.648;23.370;2022-11-20T14:21:41;8.77;;;3.60;;
24873;SDS011;12945;42.648;23.370;2022-11-20T14:24:09;9.23;;;3.60;;
24873;SDS011;12945;42.648;23.370;2022-11-20T14:26:35;9.52;;;3.88;;
24873;SDS011;12945;42.648;23.370;2022-11-20T14:29:02;9.65;;;3.78;;
24873;SDS011;12945;42.648;23.370;2022-11-20T14:31:27;14.07;;;5.07;;
24873;SDS011;12945;42.648;23.370;2022-11-20T14:33:53;15.52;;;3.85;;
24873;SDS011;12945;42.648;23.370;2022-11-20T14:36:20;11.50;;;3.92;;
24873;SDS011;12945;42.648;23.370;2022-11-20T14:38:46;9.10;;;4.03;;
24873;SDS011;12945;42.648;23.370;2022-11-20T14:41:19;10.65;;;4.47;;
24873;SDS011;12945;42.648;23.370;2022-11-20T14:43:45;11.50;;;4.40;;
24873;SDS011;12945;42.648;23.370;2022-11-20T14:46:11;10.52;;;4.05;;
24873;SDS011;12945;42.648;23.370;2022-11-20T14:48:41;10.02;;;4.57;;
24873;SDS011;12945;42.648;23.370;2022-11-20T14:51:09;10.40;;;5.32;;
24873;SDS011;12945;42.648;23.370;2022-11-20T14:53:34;13.68;;;4.97;;
24873;SDS011;12945;42.648;23.370;2022-11-20T14:56:00;16.67;;;4.78;;
24873;SDS011;12945;42.648;23.370;2022-11-20T14:58:32;12.88;;;4.60;;
24873;SDS011;12945;42.648;23.370;2022-11-20T15:01:02;11.20;;;4.82;;
24873;SDS011;12945;42.648;23.370;2022-11-20T15:03:39;15.00;;;5.45;;
24873;SDS011;12945;42.648;23.370;2022-11-20T15:06:05;15.02;;;6.13;;
24873;SDS011;12945;42.648;23.370;2022-11-20T15:08:30;14.82;;;6.22;;
24873;SDS011;12945;42.648;23.370;2022-11-20T15:10:55;16.63;;;7.53;;
24873;SDS011;12945;42.648;23.370;2022-11-20T15:13:37;14.50;;;6.22;;
24873;SDS011;12945;42.648;23.370;2022-11-20T15:16:03;10.38;;;5.18;;
24873;SDS011;12945;42.648;23.370;2022-11-20T15:18:32;9.43;;;4.28;;
24873;SDS011;12945;42.648;23.370;2022-11-20T15:21:02;6.50;;;3.40;;
24873;SDS011;12945;42.648;23.370;2022-11-20T15:23:28;8.40;;;3.00;;
24873;SDS011;12945;42.648;23.370;2022-11-20T15:25:53;8.05;;;3.28;;
24873;SDS011;12945;42.648;23.370;2022-11-20T15:28:25;7.70;;;3.35;;
24873;SDS011;12945;42.648;23.370;2022-11-20T15:30:51;8.93;;;3.05;;
24873;SDS011;12945;42.648;23.370;2022-11-20T15:33:17;7.22;;;3.15;;
24873;SDS011;12945;42.648;23.370;2022-11-20T15:35:42;7.00;;;3.08;;
24873;SDS011;12945;42.648;23.370;2022-11-20T15:38:07;7.10;;;3.45;;
24873;SDS011;12945;42.648;23.370;2022-11-20T15:40:33;8.80;;;2.80;;
24873;SDS011;12945;42.648;23.370;2022-11-20T15:42:58;5.22;;;3.13;;
24873;SDS011;12945;42.648;23.370;2022-11-20T15:45:35;6.40;;;2.53;;
24873;SDS011;12945;42.648;23.370;2022-11-20T15:48:02;6.88;;;3.05;;
24873;SDS011;12945;42.648;23.370;2022-11-20T15:50:29;8.82;;;3.25;;
24873;SDS011;12945;42.648;23.370;2022-11-20T15:52:58;6.43;;;3.60;;
24873;SDS011;12945;42.648;23.370;2022-11-20T15:55:24;4.75;;;2.75;;
24873;SDS011;12945;42.648;23.370;2022-11-20T15:57:49;3.83;;;2.67;;
24873;SDS011;12945;42.648;23.370;2022-11-20T16:00:14;4.55;;;2.35;;
24873;SDS011;12945;42.648;23.370;2022-11-20T16:02:40;6.88;;;2.30;;
24873;SDS011;12945;42.648;23.370;2022-11-20T16:05:08;8.65;;;2.38;;
24873;SDS011;12945;42.648;23.370;2022-11-20T16:07:35;7.37;;;2.47;;
24873;SDS011;12945;42.648;23.370;2022-11-20T16:10:00;6.07;;;2.10;;
24873;SDS011;12945;42.648;23.370;2022-11-20T16:12:25;4.53;;;2.05;;
24873;SDS011;12945;42.648;23.370;2022-11-20T16:15:09;5.55;;;2.22;;
24873;SDS011;12945;42.648;23.370;2022-11-20T16:17:53;9.43;;;2.55;;
24873;SDS011;12945;42.648;23.370;2022-11-20T16:20:19;4.22;;;2.60;;